createdAt,value
2022-08-11T00:01:21.128Z,15.80
2022-08-11T00:03:58.853Z,15.70
2022-08-11T00:06:30.960Z,15.60
2022-08-11T00:08:58.530Z,15.50
2022-08-11T00:11:37.315Z,15.30
2022-08-11T00:14:12.270Z,15.30
2022-08-11T00:16:41.021Z,15.30
2022-08-11T00:19:08.385Z,15.30
2022-08-11T00:22:04.230Z,15.30
2022-08-11T00:24:51.712Z,15.20
2022-08-11T00:27:19.810Z,15.30
2022-08-11T00:29:56.677Z,15.20
2022-08-11T00:32:23.960Z,15.20
2022-08-11T00:34:51.245Z,15.20
2022-08-11T00:37:38.820Z,15.20
2022-08-11T00:40:10.146Z,15.10
2022-08-11T00:42:55.215Z,15.00
2022-08-11T00:45:42.772Z,14.90
2022-08-11T00:48:27.837Z,14.80
2022-08-11T00:51:21.233Z,14.80
2022-08-11T00:54:25.574Z,14.80
2022-08-11T00:56:58.825Z,14.80
2022-08-11T00:59:35.029Z,14.90
2022-08-11T01:02:16.964Z,14.80
2022-08-11T01:04:57.091Z,14.90
2022-08-11T01:08:01.471Z,14.80
2022-08-11T01:10:41.902Z,14.80
2022-08-11T01:13:15.990Z,14.90
2022-08-11T01:15:56.985Z,14.80
2022-08-11T01:18:50.447Z,14.80
2022-08-11T01:21:42.398Z,14.80
2022-08-11T01:24:46.635Z,14.80
2022-08-11T01:27:49.355Z,14.70
2022-08-11T01:30:39.229Z,14.70
2022-08-11T01:33:20.025Z,14.70
2022-08-11T01:36:08.163Z,14.80
2022-08-11T01:38:55.306Z,14.70
2022-08-11T01:42:03.438Z,14.70
2022-08-11T01:44:50.103Z,14.70
2022-08-11T01:47:53.437Z,14.70
2022-08-11T01:50:46.545Z,14.80
2022-08-11T01:53:32.874Z,14.70
2022-08-11T01:56:18.007Z,14.60
2022-08-11T01:59:08.394Z,14.60
2022-08-11T02:01:45.913Z,14.70
2022-08-11T02:04:13.141Z,14.60
2022-08-11T02:06:59.269Z,14.70
2022-08-11T02:09:51.779Z,14.70
2022-08-11T02:12:28.207Z,14.60
2022-08-11T02:15:05.322Z,14.60
2022-08-11T02:17:38.694Z,14.70
2022-08-11T02:20:35.393Z,14.70
2022-08-11T02:24:05.835Z,14.70
2022-08-11T02:26:11.764Z,14.70
2022-08-11T02:29:10.653Z,14.60
2022-08-11T02:32:24.150Z,14.60
2022-08-11T02:35:10.085Z,14.50
2022-08-11T02:37:51.390Z,14.50
2022-08-11T02:40:25.121Z,14.50
2022-08-11T02:43:31.865Z,14.50
2022-08-11T02:46:18.632Z,14.50
2022-08-11T02:49:37.444Z,14.50
2022-08-11T02:52:10.957Z,14.50
2022-08-11T02:55:01.552Z,14.50
2022-08-11T02:58:17.918Z,14.50
2022-08-11T03:01:11.580Z,14.50
2022-08-11T03:03:53.714Z,14.40
2022-08-11T03:06:41.396Z,14.40
2022-08-11T03:09:18.209Z,14.30
2022-08-11T03:12:23.110Z,14.30
2022-08-11T03:15:36.707Z,14.30
2022-08-11T03:18:26.906Z,14.30
2022-08-11T03:21:03.062Z,14.30
2022-08-11T03:23:35.495Z,14.20
2022-08-11T03:26:32.708Z,14.20
2022-08-11T03:29:25.161Z,14.20
2022-08-11T03:32:22.038Z,14.20
2022-08-11T03:34:49.272Z,14.20
2022-08-11T03:37:50.398Z,14.10
2022-08-11T03:40:59.335Z,14.10
2022-08-11T03:43:58.483Z,14.00
2022-08-11T03:46:51.384Z,14.00
2022-08-11T03:49:57.955Z,14.00
2022-08-11T03:53:32.698Z,14.00
2022-08-11T03:56:27.312Z,14.00
2022-08-11T03:59:32.727Z,14.00
2022-08-11T04:02:22.988Z,13.90
2022-08-11T04:05:01.249Z,13.90
2022-08-11T04:07:59.415Z,13.90
2022-08-11T04:10:54.776Z,13.90
2022-08-11T04:13:41.155Z,13.90
2022-08-11T04:16:34.512Z,13.90
2022-08-11T04:19:20.480Z,13.80
2022-08-11T04:22:15.177Z,13.80
2022-08-11T04:24:54.657Z,13.80
2022-08-11T04:27:59.580Z,13.70
2022-08-11T04:30:49.938Z,13.70
2022-08-11T04:33:45.357Z,13.70
2022-08-11T04:37:10.790Z,13.70
2022-08-11T04:40:11.766Z,13.70
2022-08-11T04:43:19.787Z,13.70
2022-08-11T04:46:09.057Z,13.70
2022-08-11T04:49:24.223Z,13.70
2022-08-11T04:52:53.810Z,13.70
2022-08-11T04:56:10.827Z,13.80
2022-08-11T04:59:08.408Z,13.80
2022-08-11T05:01:41.676Z,13.80
2022-08-11T05:04:45.997Z,13.80
2022-08-11T05:07:54.888Z,13.80
2022-08-11T05:10:59.149Z,13.90
2022-08-11T05:13:52.541Z,13.90
2022-08-11T05:16:46.320Z,14.00
2022-08-11T05:19:36.455Z,14.00
2022-08-11T05:22:22.379Z,14.00
2022-08-11T05:25:10.826Z,14.10
2022-08-11T05:28:07.801Z,14.20
2022-08-11T05:30:53.608Z,14.20
2022-08-11T05:33:44.221Z,14.30
2022-08-11T05:36:46.233Z,14.40
2022-08-11T05:39:38.673Z,14.40
2022-08-11T05:42:29.762Z,14.50
2022-08-11T05:46:02.300Z,14.60
2022-08-11T05:48:41.734Z,14.70
2022-08-11T05:51:30.014Z,14.80
2022-08-11T05:54:28.942Z,14.90
2022-08-11T05:56:59.853Z,15.00
2022-08-11T05:59:28.407Z,15.10
2022-08-11T06:02:05.954Z,15.20
2022-08-11T06:04:33.615Z,15.30
2022-08-11T06:07:03.885Z,15.40
2022-08-11T06:09:35.282Z,15.60
2022-08-11T06:12:08.625Z,15.70
2022-08-11T06:14:41.243Z,15.90
2022-08-11T06:17:08.494Z,16.10
2022-08-11T06:19:38.749Z,16.30
2022-08-11T06:22:06.639Z,16.40
2022-08-11T06:24:35.051Z,16.50
2022-08-11T06:27:12.188Z,16.60
2022-08-11T06:29:54.775Z,16.60
2022-08-11T06:32:31.340Z,16.70
2022-08-11T06:35:21.875Z,16.80
2022-08-11T06:38:03.617Z,16.80
2022-08-11T06:40:42.710Z,16.90
2022-08-11T06:43:23.561Z,17.00
2022-08-11T06:45:55.670Z,17.00
2022-08-11T06:48:23.657Z,17.10
2022-08-11T06:51:13.542Z,17.20
2022-08-11T06:54:03.227Z,17.20
2022-08-11T06:57:06.721Z,17.30
2022-08-11T07:00:19.060Z,17.40
2022-08-11T07:03:03.207Z,17.50
2022-08-11T07:05:45.995Z,17.60
2022-08-11T07:08:44.312Z,17.70
2022-08-11T07:11:45.591Z,17.70
2022-08-11T07:14:36.345Z,17.90
2022-08-11T07:17:06.719Z,18.00
2022-08-11T07:19:52.483Z,18.10
2022-08-11T07:22:42.612Z,18.10
2022-08-11T07:25:37.315Z,18.20
2022-08-11T07:28:28.113Z,18.30
2022-08-11T07:31:01.595Z,18.30
2022-08-11T07:34:07.327Z,18.50
2022-08-11T07:36:20.060Z,18.60
2022-08-11T07:38:51.291Z,18.70
2022-08-11T07:41:19.273Z,18.80
2022-08-11T07:43:49.085Z,18.90
2022-08-11T07:46:35.535Z,18.90
2022-08-11T07:49:22.544Z,19.00
2022-08-11T07:52:09.389Z,19.10
2022-08-11T07:54:36.728Z,19.20
2022-08-11T07:58:00.180Z,19.30
2022-08-11T08:00:30.282Z,19.30
2022-08-11T08:03:18.028Z,19.40
2022-08-11T08:06:15.225Z,19.50
2022-08-11T08:09:14.104Z,19.50
2022-08-11T08:11:59.869Z,19.70
2022-08-11T08:14:45.478Z,19.80
2022-08-11T08:17:31.201Z,19.90
2022-08-11T08:19:58.461Z,20.00
2022-08-11T08:22:39.169Z,20.00
2022-08-11T08:25:07.483Z,20.10
2022-08-11T08:27:35.470Z,20.20
2022-08-11T08:30:23.381Z,20.20
2022-08-11T08:32:50.914Z,20.30
2022-08-11T08:35:18.187Z,20.40
2022-08-11T08:37:47.716Z,20.40
2022-08-11T08:40:15.227Z,20.50
2022-08-11T08:42:53.674Z,20.50
2022-08-11T08:45:21.091Z,20.60
2022-08-11T08:48:06.405Z,20.80
2022-08-11T08:50:54.824Z,20.90
2022-08-11T08:53:24.208Z,21.00
2022-08-11T08:55:51.466Z,21.00
2022-08-11T08:58:19.774Z,21.10
2022-08-11T09:00:47.090Z,21.20
2022-08-11T09:06:01.713Z,21.40
2022-08-11T09:08:29.490Z,21.40
2022-08-11T09:11:15.221Z,21.50
2022-08-11T09:13:44.429Z,21.60
2022-08-11T09:16:12.081Z,21.70
2022-08-11T09:18:39.983Z,21.80
2022-08-11T09:21:07.413Z,21.90
2022-08-11T09:24:14.769Z,21.90
2022-08-11T09:26:59.303Z,22.00
2022-08-11T09:29:27.899Z,22.10
2022-08-11T09:31:55.268Z,22.10
2022-08-11T09:34:22.514Z,22.20
2022-08-11T09:37:08.284Z,22.30
2022-08-11T09:39:56.116Z,22.40
2022-08-11T09:42:24.057Z,22.60
2022-08-11T09:44:53.275Z,22.70
2022-08-11T09:47:30.625Z,22.80
2022-08-11T09:50:02.510Z,22.80
2022-08-11T09:52:31.203Z,22.90
2022-08-11T09:54:58.430Z,23.00
2022-08-11T09:57:47.139Z,23.10
2022-08-11T10:00:15.161Z,23.20
2022-08-11T10:02:47.342Z,23.30
2022-08-11T10:05:36.957Z,23.40
2022-08-11T10:08:07.041Z,23.40
2022-08-11T10:10:35.995Z,23.50
2022-08-11T10:14:03.785Z,23.60
2022-08-11T10:15:59.668Z,23.60
2022-08-11T10:18:51.439Z,23.60
2022-08-11T10:21:30.182Z,23.70
2022-08-11T10:24:17.947Z,23.80
2022-08-11T10:26:54.853Z,23.80
2022-08-11T10:29:52.279Z,23.90
2022-08-11T10:32:58.817Z,23.90
2022-08-11T10:35:30.526Z,24.00
2022-08-11T10:38:05.885Z,24.00
2022-08-11T10:40:38.066Z,24.10
2022-08-11T10:43:13.279Z,24.20
2022-08-11T10:46:01.154Z,24.20
2022-08-11T10:48:29.668Z,24.30
2022-08-11T10:51:15.245Z,24.40
2022-08-11T10:54:12.287Z,24.50
2022-08-11T10:56:58.618Z,24.50
2022-08-11T10:59:27.420Z,24.60
2022-08-11T11:01:54.687Z,24.60
2022-08-11T11:04:34.162Z,24.60
2022-08-11T11:07:16.555Z,24.60
2022-08-11T11:10:10.226Z,24.60
2022-08-11T11:13:00.408Z,24.70
2022-08-11T11:15:47.898Z,24.80
2022-08-11T11:18:24.302Z,24.80
2022-08-11T11:21:01.935Z,24.90
2022-08-11T11:23:47.303Z,24.90
2022-08-11T11:26:27.223Z,24.80
2022-08-11T11:29:00.951Z,24.90
2022-08-11T11:31:28.137Z,25.00
2022-08-11T11:34:26.953Z,25.00
2022-08-11T11:36:58.281Z,25.10
2022-08-11T11:39:30.092Z,25.10
2022-08-11T11:41:59.870Z,25.10
2022-08-11T11:44:27.194Z,25.10
2022-08-11T11:46:56.603Z,25.20
2022-08-11T11:49:28.474Z,25.20
2022-08-11T11:51:56.405Z,25.30
2022-08-11T11:54:26.461Z,25.40
2022-08-11T11:56:53.829Z,25.40
2022-08-11T11:59:40.011Z,25.60
2022-08-11T12:02:12.189Z,25.60
2022-08-11T12:04:44.266Z,25.60
2022-08-11T12:07:30.283Z,25.70
2022-08-11T12:09:57.753Z,25.70
2022-08-11T12:12:44.062Z,25.80
2022-08-11T12:15:11.953Z,25.90
2022-08-11T12:17:39.281Z,25.90
2022-08-11T12:20:31.760Z,25.90
2022-08-11T12:23:14.778Z,26.00
2022-08-11T12:26:25.358Z,26.00
2022-08-11T12:28:48.742Z,26.10
2022-08-11T12:31:16.053Z,26.20
2022-08-11T12:33:44.512Z,26.30
2022-08-11T12:36:15.709Z,26.30
2022-08-11T12:38:45.250Z,26.20
2022-08-11T12:41:38.806Z,26.20
2022-08-11T12:44:25.323Z,26.20
2022-08-11T12:46:52.658Z,26.30
2022-08-11T12:49:43.232Z,26.30
2022-08-11T12:52:22.300Z,26.20
2022-08-11T12:55:00.061Z,26.20
2022-08-11T12:58:04.990Z,26.30
2022-08-11T13:00:51.094Z,26.30
2022-08-11T13:03:40.010Z,26.40
2022-08-11T13:06:07.576Z,26.50
2022-08-11T13:08:36.719Z,26.50
2022-08-11T13:11:22.681Z,26.60
2022-08-11T13:13:53.509Z,26.50
2022-08-11T13:16:30.562Z,26.40
2022-08-11T13:18:58.806Z,26.30
2022-08-11T13:21:26.394Z,26.30
2022-08-11T13:23:59.548Z,26.20
2022-08-11T13:26:45.037Z,26.10
2022-08-11T13:29:23.540Z,26.10
2022-08-11T13:31:51.719Z,26.20
2022-08-11T13:34:19.747Z,26.20
2022-08-11T13:36:53.176Z,26.30
2022-08-11T13:39:24.162Z,26.30
2022-08-11T13:41:53.511Z,26.30
2022-08-11T13:44:25.586Z,26.20
2022-08-11T13:47:02.356Z,26.20
2022-08-11T13:49:37.081Z,26.20
2022-08-11T13:52:14.581Z,26.30
2022-08-11T13:54:42.595Z,26.40
2022-08-11T13:58:05.982Z,26.40
2022-08-11T14:00:09.699Z,26.40
2022-08-11T14:02:42.460Z,26.40
2022-08-11T14:05:13.207Z,26.40
2022-08-11T14:07:45.551Z,26.50
2022-08-11T14:10:12.818Z,26.60
2022-08-11T14:13:00.001Z,26.60
2022-08-11T14:15:34.384Z,26.60
2022-08-11T14:18:05.060Z,26.50
2022-08-11T14:20:53.085Z,26.50
2022-08-11T14:23:31.551Z,26.40
2022-08-11T14:26:17.150Z,26.40
2022-08-11T14:28:45.505Z,26.20
2022-08-11T14:31:14.526Z,26.30
2022-08-11T14:33:59.282Z,26.30
2022-08-11T14:36:34.473Z,26.20
2022-08-11T14:39:13.080Z,26.20
2022-08-11T14:42:10.219Z,26.20
2022-08-11T14:45:16.342Z,26.20
2022-08-11T14:47:45.750Z,26.10
2022-08-11T14:50:15.702Z,26.00
2022-08-11T14:52:49.856Z,26.00
2022-08-11T14:55:36.921Z,25.90
2022-08-11T14:58:04.255Z,25.80
2022-08-11T15:00:32.570Z,25.70
2022-08-11T15:03:12.651Z,25.60
2022-08-11T15:05:56.453Z,25.50
2022-08-11T15:08:50.321Z,25.40
2022-08-11T15:11:37.505Z,25.30
2022-08-11T15:14:06.338Z,25.20
2022-08-11T15:16:52.295Z,25.10
2022-08-11T15:19:21.107Z,25.10
2022-08-11T15:22:08.213Z,25.10
2022-08-11T15:24:36.973Z,25.00
2022-08-11T15:27:34.903Z,25.00
2022-08-11T15:30:33.345Z,25.00
2022-08-11T15:33:24.513Z,25.00
2022-08-11T15:36:11.295Z,24.90
2022-08-11T15:38:54.875Z,24.90
2022-08-11T15:41:46.206Z,24.80
2022-08-11T15:45:02.108Z,24.80
2022-08-11T15:47:41.682Z,24.80
2022-08-11T15:50:14.001Z,24.70
2022-08-11T15:52:53.724Z,24.60
2022-08-11T15:55:21.366Z,24.60
2022-08-11T15:58:08.530Z,24.50
2022-08-11T16:01:08.832Z,24.40
2022-08-11T16:04:07.119Z,24.30
2022-08-11T16:06:37.724Z,24.20
2022-08-11T16:09:09.550Z,24.10
2022-08-11T16:11:46.658Z,24.10
2022-08-11T16:14:32.434Z,24.00
2022-08-11T16:16:59.760Z,24.00
2022-08-11T16:19:28.801Z,24.00
2022-08-11T16:21:56.101Z,24.00
2022-08-11T16:27:02.261Z,24.00
2022-08-11T16:27:14.232Z,24.00
2022-08-11T16:29:44.309Z,23.90
2022-08-11T16:32:22.077Z,23.90
2022-08-11T16:35:43.058Z,23.90
2022-08-11T16:38:29.869Z,23.80
2022-08-11T16:40:58.891Z,23.80
2022-08-11T16:43:49.581Z,23.70
2022-08-11T16:46:37.417Z,23.70
2022-08-11T16:49:09.082Z,23.70
2022-08-11T16:51:36.394Z,23.70
2022-08-11T16:54:05.785Z,23.70
2022-08-11T16:56:48.078Z,23.60
2022-08-11T16:59:36.277Z,23.60
2022-08-11T17:02:07.010Z,23.60
2022-08-11T17:05:12.123Z,23.50
2022-08-11T17:08:01.285Z,23.50
2022-08-11T17:10:56.484Z,23.50
2022-08-11T17:13:35.644Z,23.50
2022-08-11T17:16:13.106Z,23.40
2022-08-11T17:18:57.279Z,23.40
2022-08-11T17:21:33.669Z,23.40
2022-08-11T17:24:09.069Z,23.30
2022-08-11T17:26:59.194Z,23.30
2022-08-11T17:29:30.790Z,23.20
2022-08-11T17:32:17.014Z,23.20
2022-08-11T17:35:03.130Z,23.20
2022-08-11T17:37:33.009Z,23.10
2022-08-11T17:40:01.724Z,23.00
2022-08-11T17:42:49.138Z,23.00
2022-08-11T17:45:35.676Z,22.90
2022-08-11T17:48:21.491Z,22.80
2022-08-11T17:50:49.138Z,22.80
2022-08-11T17:53:34.775Z,22.70
2022-08-11T17:56:20.947Z,22.60
2022-08-11T17:59:07.261Z,22.60
2022-08-11T18:01:36.161Z,22.50
2022-08-11T18:04:05.994Z,22.50
2022-08-11T18:06:35.179Z,22.40
2022-08-11T18:09:23.229Z,22.40
2022-08-11T18:12:11.800Z,22.40
2022-08-11T18:15:02.732Z,22.30
2022-08-11T18:17:48.529Z,22.30
2022-08-11T18:20:34.108Z,22.20
2022-08-11T18:23:21.204Z,22.10
2022-08-11T18:26:26.847Z,22.10
2022-08-11T18:29:14.570Z,22.00
2022-08-11T18:32:06.830Z,21.90
2022-08-11T18:34:55.897Z,21.80
2022-08-11T18:37:47.815Z,21.70
2022-08-11T18:40:35.415Z,21.60
2022-08-11T18:43:27.171Z,21.50
2022-08-11T18:46:17.893Z,21.40
2022-08-11T18:49:10.623Z,21.30
2022-08-11T18:51:59.029Z,21.20
2022-08-11T18:54:44.665Z,21.10
2022-08-11T18:57:30.338Z,21.00
2022-08-11T19:00:20.438Z,20.80
2022-08-11T19:03:06.375Z,20.70
2022-08-11T19:06:31.980Z,20.60
2022-08-11T19:09:00.218Z,20.50
2022-08-11T19:11:46.426Z,20.40
2022-08-11T19:14:32.151Z,20.30
2022-08-11T19:17:44.746Z,20.30
2022-08-11T19:20:26.711Z,20.10
2022-08-11T19:23:13.426Z,20.10
2022-08-11T19:25:59.114Z,20.00
2022-08-11T19:28:45.310Z,19.90
2022-08-11T19:31:31.158Z,19.80
2022-08-11T19:34:17.218Z,19.70
2022-08-11T19:37:03.404Z,19.70
2022-08-11T19:39:49.386Z,19.60
2022-08-11T19:42:35.069Z,19.50
2022-08-11T19:45:21.162Z,19.40
2022-08-11T19:48:30.690Z,19.40
2022-08-11T19:51:12.468Z,19.30
2022-08-11T19:53:58.526Z,19.20
2022-08-11T19:56:44.435Z,19.20
2022-08-11T19:59:30.487Z,19.10
2022-08-11T20:02:16.371Z,19.10
2022-08-11T20:05:02.599Z,19.00
2022-08-11T20:07:48.308Z,19.00
2022-08-11T20:10:35.573Z,18.90
2022-08-11T20:13:21.683Z,18.80
2022-08-11T20:16:08.009Z,18.80
2022-08-11T20:18:54.214Z,18.70
2022-08-11T20:21:40.266Z,18.70
2022-08-11T20:24:26.120Z,18.60
2022-08-11T20:27:24.478Z,18.50
2022-08-11T20:30:12.264Z,18.50
2022-08-11T20:32:59.043Z,18.40
2022-08-11T20:35:44.763Z,18.30
2022-08-11T20:38:30.372Z,18.30
2022-08-11T20:41:16.381Z,18.20
2022-08-11T20:44:06.909Z,18.20
2022-08-11T20:46:58.282Z,18.00
2022-08-11T20:49:51.402Z,18.00
2022-08-11T20:52:40.374Z,17.90
2022-08-11T20:55:52.244Z,17.90
2022-08-11T20:59:01.117Z,17.80
2022-08-11T21:04:54.361Z,17.70
2022-08-11T21:07:41.222Z,17.70
2022-08-11T21:10:27.525Z,17.70
2022-08-11T21:13:24.036Z,17.70
2022-08-11T21:16:25.736Z,17.70
2022-08-11T21:19:55.027Z,17.70
2022-08-11T21:22:32.675Z,17.80
2022-08-11T21:25:18.556Z,17.80
2022-08-11T21:28:04.654Z,17.80
2022-08-11T21:30:50.252Z,17.80
2022-08-11T21:33:36.205Z,17.70
2022-08-11T21:36:22.189Z,17.70
2022-08-11T21:39:07.946Z,17.70
2022-08-11T21:41:53.582Z,17.70
2022-08-11T21:44:39.874Z,17.70
2022-08-11T21:47:42.555Z,17.60
2022-08-11T21:50:29.837Z,17.50
2022-08-11T21:53:16.078Z,17.50
2022-08-11T21:56:02.892Z,17.40
2022-08-11T21:58:49.179Z,17.40
2022-08-11T22:01:34.873Z,17.40
2022-08-11T22:04:20.645Z,17.30
2022-08-11T22:07:06.215Z,17.30
2022-08-11T22:09:52.002Z,17.20
2022-08-11T22:12:44.154Z,17.10
2022-08-11T22:15:31.430Z,17.00
2022-08-11T22:18:19.784Z,16.90
2022-08-11T22:21:05.817Z,16.90
2022-08-11T22:23:53.882Z,16.80
2022-08-11T22:26:41.302Z,16.80
2022-08-11T22:29:38.211Z,16.70
2022-08-11T22:32:34.905Z,16.70
2022-08-11T22:35:21.725Z,16.60
2022-08-11T22:38:07.289Z,16.60
2022-08-11T22:40:53.182Z,16.50
2022-08-11T22:43:39.090Z,16.50
2022-08-11T22:46:25.061Z,16.50
2022-08-11T22:49:11.057Z,16.50
2022-08-11T22:51:56.675Z,16.50
2022-08-11T22:54:42.472Z,16.40
2022-08-11T22:57:28.858Z,16.40
2022-08-11T23:00:14.550Z,16.30
2022-08-11T23:03:00.418Z,16.20
2022-08-11T23:05:46.112Z,16.20
2022-08-11T23:08:31.600Z,16.20
2022-08-11T23:11:17.237Z,16.10
2022-08-11T23:14:02.806Z,16.10
2022-08-11T23:16:49.385Z,16.00
2022-08-11T23:20:04.850Z,15.90
2022-08-11T23:22:49.386Z,15.80
2022-08-11T23:25:36.776Z,15.80
2022-08-11T23:28:22.946Z,15.80
2022-08-11T23:31:09.895Z,15.70
2022-08-11T23:33:56.201Z,15.60
2022-08-11T23:36:47.150Z,15.60
2022-08-11T23:39:33.537Z,15.60
2022-08-11T23:42:20.139Z,15.50
2022-08-11T23:45:09.435Z,15.40
2022-08-11T23:47:57.113Z,15.40
2022-08-11T23:50:43.333Z,15.30
2022-08-11T23:53:29.462Z,15.30
2022-08-11T23:56:15.231Z,15.30
2022-08-11T23:59:01.278Z,15.20
